Startpagina
METAR-TAF:

METAR-TAF

Vliegvelden :

Rhino Camp, Namibië

breedte: 20-01-28S, lengte: 13-50-45E, hoogte: 756 m

Actueel weer

Dit bericht is 7 uur en het 28 minuten geleden gemaakt, om 18:00 UTC
Wind 4 kt uit het oosten
Temperatuur 29°C
Vochtigheid 45%
Druk 1015 hPa
Zicht 10 km of meer
geen wolken onder 1500 m en geen cumulonimbus

METAR: FYRN 281800Z 09004KT CAVOK 29/16 Q1015

Tijdstip: 03:28 (01:28 UTC)


TAF: ontbreekt

Waarnemingen en weersverwachtingen van meer dan 4000 vliegvelden (METAR en TAF).

De beschikbare stations zijn de gele en rode punten op de kaart.

Ga met uw muis naar het station om de naam te zien.

Klik dan om waarnemingen en weersverwachtingen te zien.

kaart wijzigen: klik op de groene knoppen met een zwart kruis om in te zoomen, op de groene knop met een streepje om uit te zoomen of op de groene pijlen voor aangrenzende kaarten.


METAR-TAF: